DLH9458 EDDM-LIPZ
Flight info
| Callsign | DLH9458 |
|---|---|
| Flight time | 0h 37m |
| Altitude | 35000 |
| Route | TURBU7S TURBU Y107 TOBSO DCT BAKOR DCT NAXAV/N0410F210 DCT ADOSA/N0397F190 L612 ALBET |
| Aircraft | A320/M-SDE3FGHIRWY/LB1 |
Departure
| Time | 2026-05-06 17:21 |
|---|---|
| Airport | Munich Airport (EDDM) |
Arrival
| Time | 2026-05-06 17:58 |
|---|---|
| Airport | Venice Marco Polo Airport (LIPZ) |
| Time | Latitude | Longitude | Altitude | Speed | Heading |
|---|---|---|---|---|---|
| 2026-05-06 16:53 | 48.35236 | 11.79341 | 1478 ft | 0 kts | 263° |
| 2026-05-06 16:54 | 48.35237 | 11.79353 | 1478 ft | 0 kts | 263° |
| 2026-05-06 17:11 | 48.35238 | 11.79369 | 1474 ft | 4 kts | 263° |
| 2026-05-06 17:12 | 48.35241 | 11.79410 | 1475 ft | 4 kts | 263° |
| 2026-05-06 17:12 | 48.35244 | 11.79442 | 1481 ft | 4 kts | 254° |
| 2026-05-06 17:12 | 48.35256 | 11.79475 | 1482 ft | 4 kts | 213° |
| 2026-05-06 17:12 | 48.35278 | 11.79484 | 1478 ft | 3 kts | 173° |
| 2026-05-06 17:13 | 48.35296 | 11.79481 | 1473 ft | 0 kts | 173° |
| 2026-05-06 17:15 | 48.35295 | 11.79482 | 1478 ft | 1 kts | 173° |
| 2026-05-06 17:15 | 48.35250 | 11.79489 | 1481 ft | 10 kts | 173° |
| 2026-05-06 17:15 | 48.35187 | 11.79500 | 1471 ft | 8 kts | 173° |
| 2026-05-06 17:15 | 48.35118 | 11.79512 | 1482 ft | 13 kts | 173° |
| 2026-05-06 17:16 | 48.35030 | 11.79527 | 1485 ft | 12 kts | 173° |
| 2026-05-06 17:16 | 48.34957 | 11.79540 | 1481 ft | 8 kts | 173° |
| 2026-05-06 17:16 | 48.34922 | 11.79546 | 1485 ft | 3 kts | 173° |
| 2026-05-06 17:16 | 48.34882 | 11.79553 | 1479 ft | 10 kts | 173° |
| 2026-05-06 17:17 | 48.34799 | 11.79613 | 1480 ft | 17 kts | 110° |
| 2026-05-06 17:17 | 48.34810 | 11.79807 | 1482 ft | 22 kts | 83° |
| 2026-05-06 17:17 | 48.34828 | 11.80039 | 1480 ft | 21 kts | 83° |
| 2026-05-06 17:17 | 48.34817 | 11.80186 | 1479 ft | 11 kts | 133° |
| 2026-05-06 17:18 | 48.34750 | 11.80239 | 1482 ft | 13 kts | 171° |
| 2026-05-06 17:18 | 48.34655 | 11.80255 | 1483 ft | 14 kts | 174° |
| 2026-05-06 17:18 | 48.34570 | 11.80270 | 1480 ft | 8 kts | 173° |
| 2026-05-06 17:18 | 48.34518 | 11.80278 | 1473 ft | 6 kts | 178° |
| 2026-05-06 17:19 | 48.34466 | 11.80254 | 1477 ft | 7 kts | 241° |
| 2026-05-06 17:19 | 48.34464 | 11.80233 | 1485 ft | 0 kts | 262° |
| 2026-05-06 17:20 | 48.34462 | 11.80214 | 1479 ft | 8 kts | 263° |
| 2026-05-06 17:20 | 48.34431 | 11.79814 | 1486 ft | 74 kts | 263° |
| 2026-05-06 17:20 | 48.34347 | 11.78737 | 1476 ft | 131 kts | 263° |
| 2026-05-06 17:20 | 48.34224 | 11.77164 | 1649 ft | 162 kts | 263° |
| 2026-05-06 17:21 | 48.34100 | 11.75471 | 2296 ft | 163 kts | 263° |
| 2026-05-06 17:21 | 48.33979 | 11.73751 | 2887 ft | 173 kts | 263° |
| 2026-05-06 17:21 | 48.33717 | 11.71887 | 3226 ft | 193 kts | 241° |
| 2026-05-06 17:21 | 48.32643 | 11.70571 | 3562 ft | 216 kts | 199° |
| 2026-05-06 17:22 | 48.31130 | 11.70260 | 4305 ft | 223 kts | 184° |
| 2026-05-06 17:22 | 48.29574 | 11.70313 | 5163 ft | 225 kts | 175° |
| 2026-05-06 17:22 | 48.28098 | 11.71145 | 5901 ft | 237 kts | 148° |
| 2026-05-06 17:22 | 48.26760 | 11.72793 | 6324 ft | 259 kts | 143° |
| 2026-05-06 17:23 | 48.25261 | 11.74458 | 6909 ft | 273 kts | 148° |
| 2026-05-06 17:23 | 48.23664 | 11.76075 | 7548 ft | 280 kts | 149° |
| 2026-05-06 17:23 | 48.22039 | 11.77687 | 7726 ft | 280 kts | 148° |
| 2026-05-06 17:23 | 48.20413 | 11.79300 | 7795 ft | 280 kts | 148° |
| 2026-05-06 17:24 | 48.18788 | 11.80914 | 7802 ft | 280 kts | 150° |
| 2026-05-06 17:24 | 48.17046 | 11.82161 | 7807 ft | 277 kts | 163° |
| 2026-05-06 17:24 | 48.15210 | 11.83059 | 7809 ft | 277 kts | 163° |
| 2026-05-06 17:24 | 48.13377 | 11.83962 | 7814 ft | 277 kts | 163° |
| 2026-05-06 17:25 | 48.11547 | 11.84874 | 7808 ft | 277 kts | 163° |
| 2026-05-06 17:25 | 48.09707 | 11.85796 | 8062 ft | 282 kts | 163° |
| 2026-05-06 17:25 | 48.07846 | 11.86730 | 9043 ft | 282 kts | 163° |
| 2026-05-06 17:25 | 48.05980 | 11.87665 | 9936 ft | 285 kts | 163° |
| 2026-05-06 17:26 | 48.04032 | 11.88629 | 10291 ft | 307 kts | 163° |
| 2026-05-06 17:26 | 48.01954 | 11.89651 | 10543 ft | 330 kts | 163° |
| 2026-05-06 17:26 | 47.99696 | 11.90764 | 10802 ft | 350 kts | 163° |
| 2026-05-06 17:26 | 47.97352 | 11.91921 | 11399 ft | 358 kts | 163° |
| 2026-05-06 17:27 | 47.94975 | 11.93097 | 12125 ft | 362 kts | 163° |
| 2026-05-06 17:27 | 47.92565 | 11.94238 | 12832 ft | 364 kts | 168° |
| 2026-05-06 17:27 | 47.90073 | 11.94815 | 13607 ft | 363 kts | 179° |
| 2026-05-06 17:27 | 47.87543 | 11.94815 | 14257 ft | 365 kts | 183° |
| 2026-05-06 17:28 | 47.84991 | 11.94759 | 14878 ft | 368 kts | 183° |
| 2026-05-06 17:28 | 47.82413 | 11.94704 | 15496 ft | 371 kts | 183° |
| 2026-05-06 17:28 | 47.79824 | 11.94652 | 16114 ft | 374 kts | 182° |
| 2026-05-06 17:28 | 47.77205 | 11.94604 | 16751 ft | 376 kts | 182° |
| 2026-05-06 17:29 | 47.74586 | 11.94559 | 17351 ft | 379 kts | 182° |
| 2026-05-06 17:29 | 47.71931 | 11.94513 | 17943 ft | 382 kts | 182° |
| 2026-05-06 17:29 | 47.69261 | 11.94468 | 18470 ft | 385 kts | 182° |
| 2026-05-06 17:29 | 47.66602 | 11.94422 | 18946 ft | 388 kts | 183° |
| 2026-05-06 17:30 | 47.63885 | 11.94372 | 19411 ft | 391 kts | 183° |
| 2026-05-06 17:30 | 47.61157 | 11.94319 | 19934 ft | 393 kts | 183° |
| 2026-05-06 17:30 | 47.58413 | 11.94265 | 20447 ft | 395 kts | 183° |
| 2026-05-06 17:30 | 47.55657 | 11.94212 | 20946 ft | 398 kts | 183° |
| 2026-05-06 17:31 | 47.52875 | 11.94161 | 21415 ft | 401 kts | 183° |
| 2026-05-06 17:31 | 47.50074 | 11.94113 | 21924 ft | 404 kts | 183° |
| 2026-05-06 17:31 | 47.47253 | 11.94066 | 22399 ft | 407 kts | 183° |
| 2026-05-06 17:31 | 47.44411 | 11.94020 | 22842 ft | 409 kts | 183° |
| 2026-05-06 17:32 | 47.41574 | 11.93714 | 23295 ft | 410 kts | 189° |
| 2026-05-06 17:32 | 47.38770 | 11.93155 | 23670 ft | 412 kts | 189° |
| 2026-05-06 17:32 | 47.35919 | 11.92582 | 24062 ft | 414 kts | 190° |
| 2026-05-06 17:32 | 47.33065 | 11.92005 | 24476 ft | 415 kts | 190° |
| 2026-05-06 17:33 | 47.30199 | 11.91431 | 24881 ft | 416 kts | 190° |
| 2026-05-06 17:33 | 47.27327 | 11.90860 | 25279 ft | 417 kts | 190° |
| 2026-05-06 17:33 | 47.24441 | 11.90285 | 25683 ft | 419 kts | 190° |
| 2026-05-06 17:33 | 47.21550 | 11.89708 | 26052 ft | 420 kts | 190° |
| 2026-05-06 17:34 | 47.18645 | 11.89129 | 26395 ft | 421 kts | 190° |
| 2026-05-06 17:34 | 47.15737 | 11.88549 | 26784 ft | 422 kts | 191° |
| 2026-05-06 17:34 | 47.12826 | 11.87974 | 27103 ft | 423 kts | 190° |
| 2026-05-06 17:34 | 47.09898 | 11.87401 | 27448 ft | 424 kts | 190° |
| 2026-05-06 17:35 | 47.06980 | 11.86828 | 27725 ft | 425 kts | 191° |
| 2026-05-06 17:35 | 47.04045 | 11.86244 | 28034 ft | 427 kts | 191° |
| 2026-05-06 17:35 | 47.01097 | 11.85634 | 28349 ft | 427 kts | 192° |
| 2026-05-06 17:36 | 46.95309 | 11.83984 | 29333 ft | 420 kts | 195° |
| 2026-05-06 17:36 | 46.92473 | 11.83025 | 29779 ft | 417 kts | 196° |
| 2026-05-06 17:36 | 46.89649 | 11.82047 | 30151 ft | 416 kts | 196° |
| 2026-05-06 17:36 | 46.86833 | 11.81086 | 30509 ft | 415 kts | 196° |
| 2026-05-06 17:37 | 46.84024 | 11.80152 | 30909 ft | 414 kts | 195° |
| 2026-05-06 17:37 | 46.81251 | 11.79255 | 31329 ft | 412 kts | 195° |
| 2026-05-06 17:37 | 46.78450 | 11.78366 | 31677 ft | 411 kts | 195° |
| 2026-05-06 17:37 | 46.75657 | 11.77488 | 32021 ft | 411 kts | 195° |
| 2026-05-06 17:38 | 46.72868 | 11.76616 | 32450 ft | 409 kts | 195° |
| 2026-05-06 17:38 | 46.70096 | 11.75751 | 32765 ft | 408 kts | 195° |
| 2026-05-06 17:38 | 46.64542 | 11.74009 | 32861 ft | 409 kts | 195° |
| 2026-05-06 17:39 | 46.58865 | 11.73169 | 32872 ft | 416 kts | 180° |
| 2026-05-06 17:39 | 46.53086 | 11.74060 | 32876 ft | 417 kts | 179° |
| 2026-05-06 17:40 | 46.47323 | 11.74962 | 32878 ft | 416 kts | 179° |
| 2026-05-06 17:40 | 46.44437 | 11.75404 | 32688 ft | 415 kts | 179° |
| 2026-05-06 17:40 | 46.41568 | 11.75843 | 31864 ft | 415 kts | 179° |
| 2026-05-06 17:41 | 46.38684 | 11.76287 | 30940 ft | 418 kts | 179° |
| 2026-05-06 17:41 | 46.35793 | 11.76725 | 30188 ft | 418 kts | 180° |
| 2026-05-06 17:41 | 46.32904 | 11.77164 | 29378 ft | 415 kts | 181° |
| 2026-05-06 17:41 | 46.30034 | 11.77602 | 28412 ft | 415 kts | 181° |
| 2026-05-06 17:42 | 46.27189 | 11.78038 | 27337 ft | 417 kts | 180° |
| 2026-05-06 17:42 | 46.24289 | 11.78481 | 26183 ft | 421 kts | 180° |
| 2026-05-06 17:42 | 46.21359 | 11.78921 | 24965 ft | 426 kts | 180° |
| 2026-05-06 17:42 | 46.18423 | 11.79359 | 24130 ft | 423 kts | 179° |
| 2026-05-06 17:43 | 46.15502 | 11.79804 | 23328 ft | 420 kts | 179° |
| 2026-05-06 17:43 | 46.12614 | 11.80246 | 22398 ft | 416 kts | 179° |
| 2026-05-06 17:43 | 46.09746 | 11.80683 | 21558 ft | 413 kts | 179° |
| 2026-05-06 17:43 | 46.06902 | 11.81118 | 20784 ft | 409 kts | 178° |
| 2026-05-06 17:44 | 46.04088 | 11.81551 | 20045 ft | 406 kts | 178° |
| 2026-05-06 17:44 | 46.01290 | 11.81977 | 19332 ft | 403 kts | 178° |
| 2026-05-06 17:44 | 45.98509 | 11.82396 | 18627 ft | 400 kts | 178° |
| 2026-05-06 17:44 | 45.95744 | 11.82809 | 17822 ft | 398 kts | 178° |
| 2026-05-06 17:45 | 45.93002 | 11.83217 | 17087 ft | 394 kts | 178° |
| 2026-05-06 17:45 | 45.90288 | 11.83621 | 16401 ft | 391 kts | 177° |
| 2026-05-06 17:45 | 45.87599 | 11.84021 | 15726 ft | 387 kts | 177° |
| 2026-05-06 17:45 | 45.84930 | 11.84420 | 15112 ft | 384 kts | 177° |
| 2026-05-06 17:46 | 45.82285 | 11.84822 | 14498 ft | 380 kts | 176° |
| 2026-05-06 17:46 | 45.79669 | 11.85220 | 13887 ft | 376 kts | 176° |
| 2026-05-06 17:46 | 45.77072 | 11.85609 | 13192 ft | 373 kts | 176° |
| 2026-05-06 17:46 | 45.74499 | 11.85990 | 12478 ft | 371 kts | 176° |
| 2026-05-06 17:47 | 45.71943 | 11.86369 | 11767 ft | 369 kts | 176° |
| 2026-05-06 17:47 | 45.69396 | 11.86749 | 11078 ft | 367 kts | 176° |
| 2026-05-06 17:47 | 45.66868 | 11.87130 | 10399 ft | 364 kts | 176° |
| 2026-05-06 17:47 | 45.64356 | 11.87507 | 9784 ft | 361 kts | 176° |
| 2026-05-06 17:48 | 45.61947 | 11.87868 | 9625 ft | 343 kts | 176° |
| 2026-05-06 17:48 | 45.59633 | 11.88218 | 9494 ft | 324 kts | 176° |
| 2026-05-06 17:48 | 45.57488 | 11.88544 | 9353 ft | 297 kts | 177° |
| 2026-05-06 17:48 | 45.55507 | 11.88843 | 9106 ft | 277 kts | 177° |
| 2026-05-06 17:49 | 45.53622 | 11.89121 | 8540 ft | 270 kts | 177° |
| 2026-05-06 17:49 | 45.51762 | 11.89392 | 7898 ft | 267 kts | 177° |
| 2026-05-06 17:49 | 45.49917 | 11.89659 | 7248 ft | 266 kts | 177° |
| 2026-05-06 17:49 | 45.48084 | 11.89925 | 6615 ft | 264 kts | 177° |
| 2026-05-06 17:50 | 45.46259 | 11.90192 | 5996 ft | 265 kts | 176° |
| 2026-05-06 17:50 | 45.44429 | 11.90459 | 5620 ft | 263 kts | 176° |
| 2026-05-06 17:50 | 45.42676 | 11.91143 | 5246 ft | 264 kts | 153° |
| 2026-05-06 17:50 | 45.41240 | 11.92769 | 4858 ft | 266 kts | 137° |
| 2026-05-06 17:51 | 45.39983 | 11.94685 | 4537 ft | 264 kts | 134° |
| 2026-05-06 17:51 | 45.38747 | 11.96614 | 4275 ft | 262 kts | 134° |
| 2026-05-06 17:51 | 45.37538 | 11.98495 | 4009 ft | 254 kts | 134° |
| 2026-05-06 17:51 | 45.36361 | 12.00319 | 3762 ft | 246 kts | 134° |
| 2026-05-06 17:52 | 45.35222 | 12.02075 | 3600 ft | 237 kts | 134° |
| 2026-05-06 17:52 | 45.34124 | 12.03761 | 3480 ft | 230 kts | 134° |
| 2026-05-06 17:52 | 45.33038 | 12.05434 | 3356 ft | 229 kts | 134° |
| 2026-05-06 17:52 | 45.32116 | 12.07253 | 3223 ft | 230 kts | 115° |
| 2026-05-06 17:53 | 45.31848 | 12.09513 | 3114 ft | 237 kts | 87° |
| 2026-05-06 17:53 | 45.32102 | 12.11030 | 3046 ft | 241 kts | 67° |
| 2026-05-06 17:53 | 45.33086 | 12.12899 | 3011 ft | 234 kts | 42° |
| 2026-05-06 17:53 | 45.34305 | 12.14445 | 3015 ft | 234 kts | 42° |
| 2026-05-06 17:54 | 45.35524 | 12.15993 | 3009 ft | 234 kts | 43° |
| 2026-05-06 17:54 | 45.36734 | 12.17537 | 3011 ft | 231 kts | 43° |
| 2026-05-06 17:54 | 45.37897 | 12.19022 | 2956 ft | 220 kts | 43° |
| 2026-05-06 17:54 | 45.39027 | 12.20465 | 2754 ft | 216 kts | 43° |
| 2026-05-06 17:55 | 45.40115 | 12.21856 | 2475 ft | 210 kts | 43° |
| 2026-05-06 17:55 | 45.41186 | 12.23224 | 2179 ft | 202 kts | 43° |
| 2026-05-06 17:55 | 45.42202 | 12.24523 | 1904 ft | 191 kts | 43° |
| 2026-05-06 17:55 | 45.43167 | 12.25758 | 1653 ft | 181 kts | 43° |
| 2026-05-06 17:56 | 45.44056 | 12.26898 | 1470 ft | 162 kts | 43° |
| 2026-05-06 17:56 | 45.44865 | 12.27938 | 1233 ft | 152 kts | 44° |
| 2026-05-06 17:56 | 45.45638 | 12.28932 | 1012 ft | 147 kts | 44° |
| 2026-05-06 17:56 | 45.46393 | 12.29898 | 827 ft | 143 kts | 43° |
| 2026-05-06 17:57 | 45.47112 | 12.30822 | 641 ft | 139 kts | 43° |
| 2026-05-06 17:57 | 45.47840 | 12.31754 | 463 ft | 138 kts | 44° |
| 2026-05-06 17:57 | 45.48551 | 12.32670 | 280 ft | 138 kts | 45° |
| 2026-05-06 17:57 | 45.49267 | 12.33593 | 108 ft | 139 kts | 45° |
| 2026-05-06 17:58 | 45.49964 | 12.34484 | 17 ft | 126 kts | 43° |
| 2026-05-06 17:58 | 45.50497 | 12.35168 | 14 ft | 79 kts | 42° |
| 2026-05-06 17:58 | 45.50805 | 12.35562 | 17 ft | 50 kts | 41° |
| 2026-05-06 17:58 | 45.51021 | 12.35810 | 16 ft | 34 kts | 25° |
| 2026-05-06 17:59 | 45.51212 | 12.35873 | 14 ft | 23 kts | 349° |
| 2026-05-06 17:59 | 45.51246 | 12.35774 | 16 ft | 11 kts | 225° |
| 2026-05-06 17:59 | 45.51176 | 12.35687 | 16 ft | 18 kts | 221° |
| 2026-05-06 17:59 | 45.51072 | 12.35554 | 16 ft | 21 kts | 221° |
| 2026-05-06 18:00 | 45.50984 | 12.35391 | 19 ft | 22 kts | 252° |
| 2026-05-06 18:00 | 45.50933 | 12.35177 | 16 ft | 24 kts | 226° |
| 2026-05-06 18:00 | 45.50807 | 12.35014 | 16 ft | 25 kts | 222° |
| 2026-05-06 18:00 | 45.50675 | 12.34844 | 16 ft | 26 kts | 223° |
| 2026-05-06 18:01 | 45.50601 | 12.34616 | 16 ft | 27 kts | 267° |
| 2026-05-06 18:01 | 45.50578 | 12.34403 | 17 ft | 18 kts | 227° |
| 2026-05-06 18:01 | 45.50485 | 12.34342 | 16 ft | 13 kts | 179° |
| 2026-05-06 18:01 | 45.50427 | 12.34298 | 16 ft | 11 kts | 267° |
| 2026-05-06 18:02 | 45.50424 | 12.34223 | 16 ft | 3 kts | 268° |
| 2026-05-06 18:02 | 45.50424 | 12.34215 | 16 ft | 0 kts | 267° |